sensor_id;sensor_type;location;lat;lon;timestamp;pressure;altitude;pressure_sealevel;temperature;humidity
21234;BME280;10774;42.178;26.578;2023-05-01T00:02:20;99979.97;;;10.54;100.00
21234;BME280;10774;42.178;26.578;2023-05-01T00:04:45;99966.28;;;10.30;100.00
21234;BME280;10774;42.178;26.578;2023-05-01T00:07:11;99970.78;;;10.30;100.00
21234;BME280;10774;42.178;26.578;2023-05-01T00:09:36;99959.78;;;9.46;100.00
21234;BME280;10774;42.178;26.578;2023-05-01T00:12:02;99977.13;;;9.54;100.00
21234;BME280;10774;42.178;26.578;2023-05-01T00:14:28;99979.53;;;9.59;100.00
21234;BME280;10774;42.178;26.578;2023-05-01T00:16:53;99954.38;;;9.31;100.00
21234;BME280;10774;42.178;26.578;2023-05-01T00:19:19;99958.63;;;9.80;100.00
21234;BME280;10774;42.178;26.578;2023-05-01T00:21:47;99954.16;;;9.94;100.00
21234;BME280;10774;42.178;26.578;2023-05-01T00:24:13;99967.25;;;10.29;100.00
21234;BME280;10774;42.178;26.578;2023-05-01T00:26:40;99950.03;;;10.17;100.00
21234;BME280;10774;42.178;26.578;2023-05-01T00:29:06;99960.22;;;10.27;100.00
21234;BME280;10774;42.178;26.578;2023-05-01T00:31:31;99948.34;;;10.31;100.00
21234;BME280;10774;42.178;26.578;2023-05-01T00:33:57;99983.22;;;10.59;100.00
21234;BME280;10774;42.178;26.578;2023-05-01T00:36:22;99961.66;;;10.46;100.00
21234;BME280;10774;42.178;26.578;2023-05-01T00:38:47;99975.19;;;10.45;100.00
21234;BME280;10774;42.178;26.578;2023-05-01T00:41:13;99948.34;;;10.45;100.00
21234;BME280;10774;42.178;26.578;2023-05-01T00:43:38;99978.75;;;10.45;100.00
21234;BME280;10774;42.178;26.578;2023-05-01T00:46:04;99980.94;;;10.39;100.00
21234;BME280;10774;42.178;26.578;2023-05-01T00:48:30;99976.06;;;10.45;100.00
21234;BME280;10774;42.178;26.578;2023-05-01T00:50:56;99959.84;;;10.33;100.00
21234;BME280;10774;42.178;26.578;2023-05-01T00:53:22;99975.38;;;10.42;100.00
21234;BME280;10774;42.178;26.578;2023-05-01T00:55:50;99936.47;;;10.35;100.00
21234;BME280;10774;42.178;26.578;2023-05-01T00:58:16;99956.31;;;10.46;100.00
21234;BME280;10774;42.178;26.578;2023-05-01T01:03:12;99958.84;;;10.77;100.00
21234;BME280;10774;42.178;26.578;2023-05-01T01:05:47;99956.19;;;10.77;100.00
21234;BME280;10774;42.178;26.578;2023-05-01T01:08:28;99964.28;;;10.89;100.00
21234;BME280;10774;42.178;26.578;2023-05-01T01:13:38;99977.22;;;10.97;100.00
21234;BME280;10774;42.178;26.578;2023-05-01T01:19:12;99961.97;;;10.56;100.00
21234;BME280;10774;42.178;26.578;2023-05-01T01:21:43;99975.56;;;10.67;100.00
21234;BME280;10774;42.178;26.578;2023-05-01T01:32:59;99977.38;;;10.67;100.00
21234;BME280;10774;42.178;26.578;2023-05-01T01:35:28;99982.47;;;10.57;100.00
21234;BME280;10774;42.178;26.578;2023-05-01T01:40:28;99971.66;;;10.86;100.00
21234;BME280;10774;42.178;26.578;2023-05-01T01:43:02;99949.41;;;10.42;100.00
21234;BME280;10774;42.178;26.578;2023-05-01T01:45:35;99982.25;;;10.74;100.00
21234;BME280;10774;42.178;26.578;2023-05-01T01:48:04;99951.72;;;10.90;100.00
21234;BME280;10774;42.178;26.578;2023-05-01T01:50:32;99971.44;;;10.76;100.00
21234;BME280;10774;42.178;26.578;2023-05-01T01:53:00;99952.34;;;10.66;100.00
21234;BME280;10774;42.178;26.578;2023-05-01T01:55:28;99965.84;;;10.65;100.00
21234;BME280;10774;42.178;26.578;2023-05-01T01:57:57;99931.78;;;10.80;100.00
21234;BME280;10774;42.178;26.578;2023-05-01T02:00:23;99963.41;;;11.03;100.00
21234;BME280;10774;42.178;26.578;2023-05-01T02:02:49;99976.16;;;10.99;100.00
21234;BME280;10774;42.178;26.578;2023-05-01T02:05:18;99984.09;;;11.01;100.00
21234;BME280;10774;42.178;26.578;2023-05-01T02:07:48;99965.94;;;10.78;100.00
21234;BME280;10774;42.178;26.578;2023-05-01T02:10:15;99963.25;;;10.78;100.00
21234;BME280;10774;42.178;26.578;2023-05-01T02:12:45;99990.66;;;10.97;100.00
21234;BME280;10774;42.178;26.578;2023-05-01T02:15:11;99980.06;;;11.08;100.00
21234;BME280;10774;42.178;26.578;2023-05-01T02:17:39;99999.75;;;11.36;100.00
21234;BME280;10774;42.178;26.578;2023-05-01T02:20:06;99978.31;;;11.07;100.00
21234;BME280;10774;42.178;26.578;2023-05-01T02:22:33;100018.59;;;11.21;100.00
21234;BME280;10774;42.178;26.578;2023-05-01T02:25:00;100009.78;;;11.19;100.00
21234;BME280;10774;42.178;26.578;2023-05-01T02:27:32;100009.22;;;11.14;100.00
21234;BME280;10774;42.178;26.578;2023-05-01T02:29:58;100021.13;;;11.37;100.00
21234;BME280;10774;42.178;26.578;2023-05-01T02:32:24;100002.47;;;11.21;100.00
21234;BME280;10774;42.178;26.578;2023-05-01T02:34:50;100011.88;;;11.29;100.00
21234;BME280;10774;42.178;26.578;2023-05-01T02:37:16;100017.13;;;11.30;100.00
21234;BME280;10774;42.178;26.578;2023-05-01T02:39:41;100014.56;;;11.29;100.00
21234;BME280;10774;42.178;26.578;2023-05-01T02:42:10;100018.69;;;11.47;100.00
21234;BME280;10774;42.178;26.578;2023-05-01T02:44:41;100034.00;;;11.59;100.00
21234;BME280;10774;42.178;26.578;2023-05-01T02:47:08;100017.59;;;11.37;100.00
21234;BME280;10774;42.178;26.578;2023-05-01T02:49:36;100038.13;;;11.38;100.00
21234;BME280;10774;42.178;26.578;2023-05-01T02:52:04;100035.75;;;11.60;100.00
21234;BME280;10774;42.178;26.578;2023-05-01T02:54:29;100019.94;;;11.29;100.00
21234;BME280;10774;42.178;26.578;2023-05-01T02:56:55;100031.56;;;11.15;100.00
21234;BME280;10774;42.178;26.578;2023-05-01T02:59:23;100056.41;;;11.18;100.00
21234;BME280;10774;42.178;26.578;2023-05-01T03:01:48;100053.50;;;11.36;100.00
21234;BME280;10774;42.178;26.578;2023-05-01T03:04:14;100061.53;;;11.50;100.00
21234;BME280;10774;42.178;26.578;2023-05-01T03:06:39;100045.34;;;10.67;100.00
21234;BME280;10774;42.178;26.578;2023-05-01T03:09:05;100070.72;;;11.05;100.00
21234;BME280;10774;42.178;26.578;2023-05-01T03:11:30;100053.03;;;11.29;100.00
21234;BME280;10774;42.178;26.578;2023-05-01T03:13:56;100062.72;;;11.32;100.00
21234;BME280;10774;42.178;26.578;2023-05-01T03:16:21;100048.72;;;11.26;100.00
21234;BME280;10774;42.178;26.578;2023-05-01T03:18:46;100063.00;;;11.54;100.00
21234;BME280;10774;42.178;26.578;2023-05-01T03:21:12;100051.09;;;10.61;100.00
21234;BME280;10774;42.178;26.578;2023-05-01T03:23:38;100063.34;;;10.94;100.00
21234;BME280;10774;42.178;26.578;2023-05-01T03:26:03;100071.19;;;11.11;100.00
21234;BME280;10774;42.178;26.578;2023-05-01T03:28:29;100058.13;;;11.19;100.00
21234;BME280;10774;42.178;26.578;2023-05-01T03:30:54;100075.00;;;11.36;100.00
21234;BME280;10774;42.178;26.578;2023-05-01T03:33:20;100092.66;;;11.40;100.00
21234;BME280;10774;42.178;26.578;2023-05-01T03:35:46;100077.84;;;11.47;100.00
21234;BME280;10774;42.178;26.578;2023-05-01T03:38:12;100076.41;;;11.41;100.00
21234;BME280;10774;42.178;26.578;2023-05-01T03:40:37;100090.72;;;11.42;100.00
21234;BME280;10774;42.178;26.578;2023-05-01T03:43:03;100096.34;;;11.51;100.00
21234;BME280;10774;42.178;26.578;2023-05-01T03:45:28;100114.06;;;11.68;100.00
21234;BME280;10774;42.178;26.578;2023-05-01T03:47:53;100112.69;;;11.75;100.00
21234;BME280;10774;42.178;26.578;2023-05-01T03:50:19;100103.13;;;11.71;100.00
21234;BME280;10774;42.178;26.578;2023-05-01T03:52:44;100110.28;;;11.85;100.00
21234;BME280;10774;42.178;26.578;2023-05-01T03:55:10;100109.41;;;11.85;100.00
21234;BME280;10774;42.178;26.578;2023-05-01T03:57:35;100118.84;;;11.77;100.00
21234;BME280;10774;42.178;26.578;2023-05-01T04:00:01;100090.09;;;11.65;100.00
21234;BME280;10774;42.178;26.578;2023-05-01T04:02:27;100112.13;;;11.70;100.00
21234;BME280;10774;42.178;26.578;2023-05-01T04:04:52;100115.63;;;11.58;100.00
21234;BME280;10774;42.178;26.578;2023-05-01T04:07:18;100100.44;;;11.71;100.00
21234;BME280;10774;42.178;26.578;2023-05-01T04:09:43;100120.13;;;11.99;100.00
21234;BME280;10774;42.178;26.578;2023-05-01T04:12:09;100107.28;;;11.90;100.00
21234;BME280;10774;42.178;26.578;2023-05-01T04:14:34;100115.88;;;11.82;100.00
21234;BME280;10774;42.178;26.578;2023-05-01T04:17:00;100109.75;;;11.66;100.00
21234;BME280;10774;42.178;26.578;2023-05-01T04:19:25;100124.97;;;11.94;100.00
21234;BME280;10774;42.178;26.578;2023-05-01T04:21:51;100125.63;;;11.97;100.00
21234;BME280;10774;42.178;26.578;2023-05-01T04:24:16;100129.09;;;12.12;100.00
21234;BME280;10774;42.178;26.578;2023-05-01T04:26:42;100114.88;;;12.10;100.00
21234;BME280;10774;42.178;26.578;2023-05-01T04:29:08;100115.50;;;12.01;100.00
21234;BME280;10774;42.178;26.578;2023-05-01T04:31:33;100131.78;;;11.44;100.00
21234;BME280;10774;42.178;26.578;2023-05-01T04:33:59;100139.09;;;11.42;100.00
21234;BME280;10774;42.178;26.578;2023-05-01T04:36:25;100107.28;;;11.48;100.00
21234;BME280;10774;42.178;26.578;2023-05-01T04:38:50;100124.84;;;11.13;100.00
21234;BME280;10774;42.178;26.578;2023-05-01T04:41:16;100125.31;;;10.77;100.00
21234;BME280;10774;42.178;26.578;2023-05-01T04:43:41;100133.75;;;10.85;100.00
21234;BME280;10774;42.178;26.578;2023-05-01T04:46:07;100137.56;;;10.81;100.00
21234;BME280;10774;42.178;26.578;2023-05-01T04:48:32;100156.75;;;10.60;100.00
21234;BME280;10774;42.178;26.578;2023-05-01T04:50:58;100158.69;;;10.87;100.00
21234;BME280;10774;42.178;26.578;2023-05-01T04:53:23;100155.84;;;11.18;100.00
21234;BME280;10774;42.178;26.578;2023-05-01T04:55:49;100148.34;;;11.09;100.00
21234;BME280;10774;42.178;26.578;2023-05-01T04:58:14;100137.97;;;11.03;100.00
21234;BME280;10774;42.178;26.578;2023-05-01T05:00:40;100147.25;;;11.40;100.00
21234;BME280;10774;42.178;26.578;2023-05-01T05:03:05;100162.47;;;11.83;100.00
21234;BME280;10774;42.178;26.578;2023-05-01T05:05:31;100162.44;;;11.97;100.00
21234;BME280;10774;42.178;26.578;2023-05-01T05:07:56;100161.13;;;12.29;100.00
21234;BME280;10774;42.178;26.578;2023-05-01T05:10:22;100166.22;;;12.47;100.00
21234;BME280;10774;42.178;26.578;2023-05-01T05:12:47;100155.25;;;12.50;100.00
21234;BME280;10774;42.178;26.578;2023-05-01T05:15:13;100156.03;;;12.77;100.00
21234;BME280;10774;42.178;26.578;2023-05-01T05:17:39;100168.97;;;12.72;100.00
21234;BME280;10774;42.178;26.578;2023-05-01T05:20:06;100171.97;;;13.06;100.00
21234;BME280;10774;42.178;26.578;2023-05-01T05:22:34;100171.97;;;13.06;100.00
21234;BME280;10774;42.178;26.578;2023-05-01T05:25:00;100158.28;;;13.09;100.00
21234;BME280;10774;42.178;26.578;2023-05-01T05:27:28;100169.16;;;13.46;100.00
21234;BME280;10774;42.178;26.578;2023-05-01T05:29:54;100141.09;;;13.61;100.00
21234;BME280;10774;42.178;26.578;2023-05-01T05:32:20;100154.91;;;13.80;100.00
21234;BME280;10774;42.178;26.578;2023-05-01T05:35:09;100132.41;;;13.69;100.00
21234;BME280;10774;42.178;26.578;2023-05-01T05:37:34;100171.06;;;14.17;100.00
21234;BME280;10774;42.178;26.578;2023-05-01T05:40:00;100164.94;;;14.15;100.00
21234;BME280;10774;42.178;26.578;2023-05-01T05:42:25;100176.94;;;14.35;100.00
21234;BME280;10774;42.178;26.578;2023-05-01T05:44:51;100190.28;;;14.60;100.00
21234;BME280;10774;42.178;26.578;2023-05-01T05:47:17;100182.34;;;14.70;100.00
21234;BME280;10774;42.178;26.578;2023-05-01T05:49:42;100180.44;;;14.83;100.00
21234;BME280;10774;42.178;26.578;2023-05-01T05:52:07;100189.06;;;15.00;100.00
21234;BME280;10774;42.178;26.578;2023-05-01T05:54:33;100183.88;;;14.97;100.00
21234;BME280;10774;42.178;26.578;2023-05-01T05:56:58;100187.56;;;14.96;100.00
21234;BME280;10774;42.178;26.578;2023-05-01T05:59:24;100196.84;;;14.69;100.00
21234;BME280;10774;42.178;26.578;2023-05-01T06:01:49;100184.16;;;15.05;100.00
21234;BME280;10774;42.178;26.578;2023-05-01T06:04:14;100192.97;;;14.96;100.00
21234;BME280;10774;42.178;26.578;2023-05-01T06:06:40;100181.16;;;14.85;100.00
21234;BME280;10774;42.178;26.578;2023-05-01T06:09:05;100202.34;;;15.14;100.00
21234;BME280;10774;42.178;26.578;2023-05-01T06:11:33;100213.19;;;15.36;100.00
21234;BME280;10774;42.178;26.578;2023-05-01T06:13:58;100200.88;;;15.55;100.00
21234;BME280;10774;42.178;26.578;2023-05-01T06:16:24;100215.66;;;15.51;100.00
21234;BME280;10774;42.178;26.578;2023-05-01T06:18:49;100206.16;;;15.23;100.00
21234;BME280;10774;42.178;26.578;2023-05-01T06:21:15;100212.69;;;15.31;100.00
21234;BME280;10774;42.178;26.578;2023-05-01T06:23:41;100205.44;;;15.65;100.00
21234;BME280;10774;42.178;26.578;2023-05-01T06:26:06;100221.06;;;15.51;100.00
21234;BME280;10774;42.178;26.578;2023-05-01T06:28:32;100229.78;;;15.43;100.00
21234;BME280;10774;42.178;26.578;2023-05-01T06:30:57;100217.09;;;15.32;100.00
21234;BME280;10774;42.178;26.578;2023-05-01T06:33:23;100224.34;;;15.21;100.00
21234;BME280;10774;42.178;26.578;2023-05-01T06:35:48;100225.50;;;15.63;100.00
21234;BME280;10774;42.178;26.578;2023-05-01T06:38:13;100228.28;;;16.06;100.00
21234;BME280;10774;42.178;26.578;2023-05-01T06:40:39;100207.34;;;16.19;100.00
21234;BME280;10774;42.178;26.578;2023-05-01T06:43:05;100224.56;;;16.30;100.00
21234;BME280;10774;42.178;26.578;2023-05-01T06:45:31;100231.59;;;16.53;98.71
21234;BME280;10774;42.178;26.578;2023-05-01T06:47:56;100233.38;;;16.75;96.34
21234;BME280;10774;42.178;26.578;2023-05-01T06:50:22;100230.94;;;16.72;96.20
21234;BME280;10774;42.178;26.578;2023-05-01T06:52:47;100247.28;;;16.70;96.30
21234;BME280;10774;42.178;26.578;2023-05-01T06:55:13;100243.22;;;16.76;98.31
21234;BME280;10774;42.178;26.578;2023-05-01T06:57:38;100231.28;;;16.79;98.18
21234;BME280;10774;42.178;26.578;2023-05-01T07:00:07;100247.94;;;16.95;97.38
21234;BME280;10774;42.178;26.578;2023-05-01T07:02:34;100248.56;;;16.98;96.80
21234;BME280;10774;42.178;26.578;2023-05-01T07:05:02;100248.75;;;16.42;99.82
21234;BME280;10774;42.178;26.578;2023-05-01T07:07:28;100248.09;;;16.50;100.00
21234;BME280;10774;42.178;26.578;2023-05-01T07:09:55;100245.38;;;16.93;100.00
21234;BME280;10774;42.178;26.578;2023-05-01T07:12:20;100234.53;;;16.61;100.00
21234;BME280;10774;42.178;26.578;2023-05-01T07:14:46;100248.19;;;16.60;100.00
21234;BME280;10774;42.178;26.578;2023-05-01T07:17:12;100246.47;;;16.59;100.00
21234;BME280;10774;42.178;26.578;2023-05-01T07:19:37;100236.25;;;16.62;100.00
21234;BME280;10774;42.178;26.578;2023-05-01T07:22:02;100247.44;;;16.69;99.35
21234;BME280;10774;42.178;26.578;2023-05-01T07:24:28;100247.75;;;17.08;97.41
21234;BME280;10774;42.178;26.578;2023-05-01T07:26:54;100248.53;;;17.40;90.02
21234;BME280;10774;42.178;26.578;2023-05-01T07:29:20;100262.19;;;17.81;86.38
21234;BME280;10774;42.178;26.578;2023-05-01T07:31:46;100262.94;;;17.62;86.43
21234;BME280;10774;42.178;26.578;2023-05-01T07:34:12;100243.19;;;17.60;87.52
21234;BME280;10774;42.178;26.578;2023-05-01T07:36:38;100256.97;;;17.68;89.11
21234;BME280;10774;42.178;26.578;2023-05-01T07:39:03;100263.78;;;17.83;88.50
21234;BME280;10774;42.178;26.578;2023-05-01T07:41:30;100265.16;;;18.18;84.73
21234;BME280;10774;42.178;26.578;2023-05-01T07:43:57;100266.66;;;18.41;82.58
21234;BME280;10774;42.178;26.578;2023-05-01T07:46:23;100254.97;;;18.70;79.19
21234;BME280;10774;42.178;26.578;2023-05-01T07:48:49;100240.16;;;18.14;75.60
21234;BME280;10774;42.178;26.578;2023-05-01T07:51:15;100258.34;;;18.43;75.40
21234;BME280;10774;42.178;26.578;2023-05-01T07:53:41;100270.09;;;18.53;75.34
21234;BME280;10774;42.178;26.578;2023-05-01T07:56:07;100266.28;;;19.04;72.74
21234;BME280;10774;42.178;26.578;2023-05-01T07:58:34;100254.94;;;19.18;69.48
21234;BME280;10774;42.178;26.578;2023-05-01T08:01:01;100258.13;;;18.85;70.30
21234;BME280;10774;42.178;26.578;2023-05-01T08:03:27;100242.22;;;18.99;68.16
21234;BME280;10774;42.178;26.578;2023-05-01T08:05:53;100253.72;;;19.59;66.78
21234;BME280;10774;42.178;26.578;2023-05-01T08:08:19;100265.00;;;20.02;64.99
21234;BME280;10774;42.178;26.578;2023-05-01T08:10:46;100272.84;;;20.15;62.36
21234;BME280;10774;42.178;26.578;2023-05-01T08:13:11;100249.63;;;20.10;62.72
21234;BME280;10774;42.178;26.578;2023-05-01T08:15:36;100274.81;;;20.40;61.16
21234;BME280;10774;42.178;26.578;2023-05-01T08:18:03;100260.53;;;20.10;58.71
21234;BME280;10774;42.178;26.578;2023-05-01T08:20:29;100273.53;;;19.89;57.49
21234;BME280;10774;42.178;26.578;2023-05-01T08:22:55;100278.06;;;19.98;56.97
21234;BME280;10774;42.178;26.578;2023-05-01T08:25:20;100271.88;;;20.06;55.64
21234;BME280;10774;42.178;26.578;2023-05-01T08:27:46;100261.72;;;20.26;56.62
21234;BME280;10774;42.178;26.578;2023-05-01T08:30:12;100264.59;;;20.24;56.40
21234;BME280;10774;42.178;26.578;2023-05-01T08:32:37;100272.69;;;20.61;57.04
21234;BME280;10774;42.178;26.578;2023-05-01T08:35:03;100272.47;;;20.91;55.22
21234;BME280;10774;42.178;26.578;2023-05-01T08:37:29;100276.22;;;21.07;52.89
21234;BME280;10774;42.178;26.578;2023-05-01T08:39:54;100268.56;;;21.11;53.01
21234;BME280;10774;42.178;26.578;2023-05-01T08:42:20;100271.09;;;21.04;52.68
21234;BME280;10774;42.178;26.578;2023-05-01T08:44:46;100274.94;;;21.20;52.62
21234;BME280;10774;42.178;26.578;2023-05-01T08:49:40;100267.69;;;21.46;52.82
21234;BME280;10774;42.178;26.578;2023-05-01T08:52:07;100273.94;;;21.21;51.46
21234;BME280;10774;42.178;26.578;2023-05-01T08:54:34;100275.91;;;21.54;52.04
21234;BME280;10774;42.178;26.578;2023-05-01T08:57:01;100258.94;;;21.69;53.16
21234;BME280;10774;42.178;26.578;2023-05-01T08:59:34;100274.38;;;21.86;52.79
21234;BME280;10774;42.178;26.578;2023-05-01T09:02:01;100275.22;;;22.12;51.78
21234;BME280;10774;42.178;26.578;2023-05-01T09:04:33;100270.28;;;22.16;51.16
21234;BME280;10774;42.178;26.578;2023-05-01T09:07:00;100258.22;;;22.35;50.02
21234;BME280;10774;42.178;26.578;2023-05-01T09:09:27;100247.13;;;22.44;48.85
21234;BME280;10774;42.178;26.578;2023-05-01T09:11:59;100272.81;;;22.60;48.84
21234;BME280;10774;42.178;26.578;2023-05-01T09:14:25;100273.75;;;22.93;47.26
21234;BME280;10774;42.178;26.578;2023-05-01T09:16:51;100266.72;;;22.99;45.94
21234;BME280;10774;42.178;26.578;2023-05-01T09:19:17;100267.25;;;22.94;45.67
21234;BME280;10774;42.178;26.578;2023-05-01T09:21:43;100264.69;;;23.09;45.34
21234;BME280;10774;42.178;26.578;2023-05-01T09:24:08;100253.47;;;22.61;45.22
21234;BME280;10774;42.178;26.578;2023-05-01T09:26:35;100252.66;;;22.77;44.60
21234;BME280;10774;42.178;26.578;2023-05-01T09:29:04;100265.72;;;22.91;43.22
21234;BME280;10774;42.178;26.578;2023-05-01T09:31:30;100257.28;;;22.77;44.09
21234;BME280;10774;42.178;26.578;2023-05-01T09:34:00;100261.78;;;23.18;43.51
21234;BME280;10774;42.178;26.578;2023-05-01T09:36:28;100264.13;;;23.46;44.23
21234;BME280;10774;42.178;26.578;2023-05-01T09:38:55;100257.13;;;23.35;43.45
21234;BME280;10774;42.178;26.578;2023-05-01T09:41:21;100258.53;;;23.23;42.61
21234;BME280;10774;42.178;26.578;2023-05-01T09:43:51;100265.88;;;23.63;42.42
21234;BME280;10774;42.178;26.578;2023-05-01T09:46:17;100263.47;;;23.68;40.71
21234;BME280;10774;42.178;26.578;2023-05-01T09:49:00;100262.38;;;23.78;40.17
21234;BME280;10774;42.178;26.578;2023-05-01T09:51:30;100236.03;;;23.68;40.08
21234;BME280;10774;42.178;26.578;2023-05-01T09:54:00;100251.66;;;23.43;38.28
21234;BME280;10774;42.178;26.578;2023-05-01T09:56:31;100248.09;;;23.27;40.86
21234;BME280;10774;42.178;26.578;2023-05-01T09:59:14;100256.63;;;23.48;39.78
21234;BME280;10774;42.178;26.578;2023-05-01T10:01:41;100259.34;;;23.64;39.41
21234;BME280;10774;42.178;26.578;2023-05-01T10:04:07;100245.59;;;23.72;38.24
21234;BME280;10774;42.178;26.578;2023-05-01T10:06:34;100251.38;;;23.94;39.00
21234;BME280;10774;42.178;26.578;2023-05-01T10:09:02;100261.38;;;23.70;38.59
21234;BME280;10774;42.178;26.578;2023-05-01T10:11:27;100262.22;;;23.79;38.39
21234;BME280;10774;42.178;26.578;2023-05-01T10:14:09;100252.28;;;23.78;38.21
21234;BME280;10774;42.178;26.578;2023-05-01T10:16:38;100242.47;;;23.92;37.95
21234;BME280;10774;42.178;26.578;2023-05-01T10:19:09;100259.78;;;23.92;37.40
21234;BME280;10774;42.178;26.578;2023-05-01T10:21:35;100239.41;;;23.87;37.57
21234;BME280;10774;42.178;26.578;2023-05-01T10:24:01;100250.09;;;23.73;36.84
21234;BME280;10774;42.178;26.578;2023-05-01T10:26:28;100264.97;;;23.79;36.80
21234;BME280;10774;42.178;26.578;2023-05-01T10:29:04;100271.16;;;23.73;38.09
21234;BME280;10774;42.178;26.578;2023-05-01T10:31:37;100250.47;;;24.10;37.21
21234;BME280;10774;42.178;26.578;2023-05-01T10:34:07;100246.03;;;24.40;37.47
21234;BME280;10774;42.178;26.578;2023-05-01T10:36:42;100235.44;;;24.29;36.71
21234;BME280;10774;42.178;26.578;2023-05-01T10:39:33;100263.66;;;24.06;36.51
21234;BME280;10774;42.178;26.578;2023-05-01T10:42:00;100246.81;;;23.78;35.60
21234;BME280;10774;42.178;26.578;2023-05-01T10:44:28;100254.22;;;24.09;36.21
21234;BME280;10774;42.178;26.578;2023-05-01T10:46:54;100224.09;;;24.40;36.59
21234;BME280;10774;42.178;26.578;2023-05-01T10:49:19;100249.81;;;24.39;36.94
21234;BME280;10774;42.178;26.578;2023-05-01T10:56:54;100261.28;;;24.73;35.03
21234;BME280;10774;42.178;26.578;2023-05-01T10:59:20;100254.63;;;24.68;35.13
21234;BME280;10774;42.178;26.578;2023-05-01T11:01:46;100257.91;;;24.63;35.64
21234;BME280;10774;42.178;26.578;2023-05-01T11:12:05;100263.91;;;24.90;35.36
21234;BME280;10774;42.178;26.578;2023-05-01T11:20:09;100254.50;;;25.45;34.33
21234;BME280;10774;42.178;26.578;2023-05-01T11:22:36;100268.28;;;25.60;33.31
21234;BME280;10774;42.178;26.578;2023-05-01T11:25:03;100267.28;;;25.75;33.70
21234;BME280;10774;42.178;26.578;2023-05-01T11:27:31;100266.59;;;25.73;33.31
21234;BME280;10774;42.178;26.578;2023-05-01T11:29:59;100266.25;;;26.06;33.09
21234;BME280;10774;42.178;26.578;2023-05-01T11:32:28;100258.16;;;26.19;32.33
21234;BME280;10774;42.178;26.578;2023-05-01T11:34:56;100255.31;;;25.83;32.27
21234;BME280;10774;42.178;26.578;2023-05-01T11:37:43;100261.09;;;25.59;32.64
21234;BME280;10774;42.178;26.578;2023-05-01T11:40:25;100271.94;;;25.90;32.50
21234;BME280;10774;42.178;26.578;2023-05-01T11:43:02;100262.81;;;26.04;31.88
21234;BME280;10774;42.178;26.578;2023-05-01T11:45:28;100240.94;;;25.96;32.47
21234;BME280;10774;42.178;26.578;2023-05-01T11:47:54;100268.09;;;26.20;32.85
21234;BME280;10774;42.178;26.578;2023-05-01T11:50:19;100259.94;;;26.42;31.55
21234;BME280;10774;42.178;26.578;2023-05-01T11:52:48;100256.06;;;26.72;31.19
21234;BME280;10774;42.178;26.578;2023-05-01T11:55:14;100257.88;;;26.44;31.46
21234;BME280;10774;42.178;26.578;2023-05-01T11:58:07;100263.00;;;26.17;31.66
21234;BME280;10774;42.178;26.578;2023-05-01T12:00:34;100263.09;;;26.09;31.28
21234;BME280;10774;42.178;26.578;2023-05-01T12:03:05;100268.09;;;26.20;30.99
21234;BME280;10774;42.178;26.578;2023-05-01T12:05:31;100256.06;;;26.72;30.81
21234;BME280;10774;42.178;26.578;2023-05-01T12:08:19;100245.03;;;26.72;30.94
21234;BME280;10774;42.178;26.578;2023-05-01T12:10:52;100247.69;;;26.80;30.66
21234;BME280;10774;42.178;26.578;2023-05-01T12:13:20;100260.59;;;27.01;30.98
21234;BME280;10774;42.178;26.578;2023-05-01T12:15:48;100230.63;;;27.13;30.32
21234;BME280;10774;42.178;26.578;2023-05-01T12:18:15;100253.47;;;27.07;30.59
21234;BME280;10774;42.178;26.578;2023-05-01T12:20:52;100253.72;;;27.33;30.32
21234;BME280;10774;42.178;26.578;2023-05-01T12:23:38;100249.19;;;27.54;29.81
21234;BME280;10774;42.178;26.578;2023-05-01T12:28:52;100268.53;;;27.60;29.58
21234;BME280;10774;42.178;26.578;2023-05-01T12:31:18;100253.53;;;27.42;30.75
21234;BME280;10774;42.178;26.578;2023-05-01T12:33:55;100235.16;;;27.49;31.11
21234;BME280;10774;42.178;26.578;2023-05-01T12:36:22;100245.47;;;27.68;30.27
21234;BME280;10774;42.178;26.578;2023-05-01T12:38:58;100261.13;;;27.61;29.54
21234;BME280;10774;42.178;26.578;2023-05-01T12:44:26;100245.09;;;27.71;28.96
21234;BME280;10774;42.178;26.578;2023-05-01T12:47:05;100227.88;;;27.69;29.20
21234;BME280;10774;42.178;26.578;2023-05-01T12:49:35;100253.16;;;28.07;29.60
21234;BME280;10774;42.178;26.578;2023-05-01T12:52:03;100225.13;;;28.10;29.25
21234;BME280;10774;42.178;26.578;2023-05-01T12:54:29;100251.63;;;28.33;28.75
21234;BME280;10774;42.178;26.578;2023-05-01T12:57:12;100232.38;;;28.53;28.83
21234;BME280;10774;42.178;26.578;2023-05-01T12:59:40;100247.44;;;28.09;28.01
21234;BME280;10774;42.178;26.578;2023-05-01T13:02:10;100239.00;;;28.17;28.01
21234;BME280;10774;42.178;26.578;2023-05-01T13:04:37;100244.09;;;28.20;28.62
21234;BME280;10774;42.178;26.578;2023-05-01T13:07:13;100249.06;;;29.06;27.58
21234;BME280;10774;42.178;26.578;2023-05-01T13:09:55;100238.84;;;29.00;28.21
21234;BME280;10774;42.178;26.578;2023-05-01T13:12:22;100249.50;;;29.16;27.90
21234;BME280;10774;42.178;26.578;2023-05-01T13:14:48;100235.44;;;29.24;26.66
21234;BME280;10774;42.178;26.578;2023-05-01T13:17:30;100237.38;;;29.57;27.05
21234;BME280;10774;42.178;26.578;2023-05-01T13:19:57;100247.09;;;29.92;26.50
21234;BME280;10774;42.178;26.578;2023-05-01T13:22:34;100250.72;;;29.93;26.31
21234;BME280;10774;42.178;26.578;2023-05-01T13:25:04;100240.81;;;30.30;25.72